»·PEaware :: N762SE KSJC-KRNO

N762SE :: KSJC-KRNO

FLIGHT INFORMATION

Flight Status: Arrived
Operator: Privately registered:
United States
More flights under this callsign
Pilot: Slade Evans (12022)
Aircraft: BEECH AIRCRAFT DEBONAIR BONANZA
(BE33)
More flights by this aircraft type
Origin: KSJC Mineta San Jose Intl
United States
Destination: KRNO Reno/Tahoe Intl
United States
More flights between these airports :: More routes between these airports
Route: KSJC SJC V334 ALTAM V28 HUYJO KRNO
File this flight plan on PilotEdge
Remarks:
Altitude:
(Current/Filed)
13,500ft
Speed:
(Current/Filed)
160kts
Departed: 12-Aug-17 02:06 PM
Arrived: 12-Aug-17 03:20 PM
Distance/Time
Traveled:
164nm/1:14
Distance/Time
To Go:
Arrived

Flight Plot

Page will automatically refresh every two minutes.

Flight plan parsing failed; only flown route is shown


Map Options




Map Legend


Flown Route
Filed Route
Departure Airport
Arrival Airport
Navaid (VOR, NDB)
Fix

Horizontal Profiles

Position Reports

Time Latitude Longitude Heading Altitude Ground
Speed
12-Aug-17 13:52 37.358552 -121.930243 134 65ft 0kts
12-Aug-17 13:53 37.358552 -121.930243 134 65ft 0kts
12-Aug-17 13:54 37.358552 -121.930243 134 65ft 0kts
12-Aug-17 13:55 37.358552 -121.930243 134 65ft 0kts
12-Aug-17 13:56 37.358552 -121.930243 134 65ft 0kts
12-Aug-17 13:57 37.358552 -121.930243 134 65ft 0kts
12-Aug-17 13:58 37.358552 -121.930243 135 65ft 0kts
12-Aug-17 13:59 37.358552 -121.930243 135 65ft 0kts
12-Aug-17 14:00 37.358552 -121.930243 135 65ft 0kts
12-Aug-17 14:01 37.358552 -121.930243 135 65ft 0kts
12-Aug-17 14:02 37.358552 -121.930243 135 65ft 0kts
12-Aug-17 14:03 37.358552 -121.930243 135 65ft 0kts
12-Aug-17 14:04 37.358516 -121.930195 130 65ft 2kts
12-Aug-17 14:05 37.356262 -121.927248 140 65ft 22kts
12-Aug-17 14:06 37.352974 -121.921201 138 65ft 26kts
12-Aug-17 14:07 37.352128 -121.920161 107 66ft 0kts
12-Aug-17 14:08 37.352963 -121.919220 323 65ft 12kts
12-Aug-17 14:09 37.368481 -121.936225 318 593ft 94kts
12-Aug-17 14:10 37.387829 -121.959032 314 1466ft 94kts
12-Aug-17 14:11 37.409351 -121.977215 359 2203ft 104kts
12-Aug-17 14:12 37.433670 -121.958564 32 2993ft 106kts
12-Aug-17 14:13 37.460290 -121.934392 32 3514ft 119kts
12-Aug-17 14:14 37.490856 -121.908980 30 3949ft 134kts
12-Aug-17 14:15 37.520076 -121.879285 48 4634ft 136kts
12-Aug-17 14:16 37.542558 -121.841471 28 5274ft 135kts
12-Aug-17 14:17 37.575641 -121.822072 22 5957ft 132kts
12-Aug-17 14:18 37.610677 -121.808541 10 6528ft 133kts
12-Aug-17 14:19 37.646532 -121.796505 11 7070ft 134kts
12-Aug-17 14:20 37.682683 -121.784267 11 7586ft 134kts
12-Aug-17 14:21 37.719291 -121.772381 9 7949ft 134kts
12-Aug-17 14:22 37.754640 -121.761972 9 8497ft 130kts
12-Aug-17 14:23 37.788131 -121.750872 9 9114ft 120kts
12-Aug-17 14:24 37.817835 -121.736876 58 9813ft 108kts
12-Aug-17 14:25 37.826626 -121.701838 67 10324ft 108kts
12-Aug-17 14:26 37.836602 -121.666215 66 10815ft 106kts
12-Aug-17 14:27 37.847944 -121.629943 62 11280ft 111kts
12-Aug-17 14:28 37.860471 -121.593565 62 11711ft 117kts
12-Aug-17 14:29 37.873989 -121.555650 57 12184ft 114kts
12-Aug-17 14:30 37.889724 -121.519998 55 12590ft 116kts
12-Aug-17 14:31 37.904018 -121.480111 61 12788ft 133kts
12-Aug-17 14:32 37.920151 -121.436673 60 13052ft 135kts
12-Aug-17 14:33 37.936539 -121.398828 57 13510ft 124kts
12-Aug-17 14:34 37.951410 -121.354525 64 13508ft 146kts
12-Aug-17 14:35 37.968035 -121.305808 63 13501ft 152kts
12-Aug-17 14:36 37.985254 -121.256732 63 13500ft 152kts
12-Aug-17 14:37 38.002420 -121.207901 63 13503ft 152kts
12-Aug-17 14:38 38.019730 -121.158628 63 13554ft 153kts
12-Aug-17 14:39 38.037205 -121.108713 63 13555ft 156kts
12-Aug-17 14:41 38.054834 -121.058266 63 13555ft 156kts
12-Aug-17 14:42 38.072388 -121.007999 62 13555ft 156kts
12-Aug-17 14:43 38.100851 -120.968277 42 13558ft 153kts
12-Aug-17 14:44 38.130596 -120.929554 42 13555ft 154kts
12-Aug-17 14:45 38.160240 -120.890287 42 13555ft 154kts
12-Aug-17 14:46 38.189963 -120.851041 42 13556ft 154kts
12-Aug-17 14:47 38.219700 -120.811853 42 13556ft 154kts
12-Aug-17 14:48 38.249524 -120.772530 42 13556ft 154kts
12-Aug-17 14:49 38.279202 -120.733328 42 13557ft 155kts
12-Aug-17 14:50 38.309035 -120.693885 42 13556ft 154kts
12-Aug-17 14:51 38.338823 -120.654448 42 13556ft 154kts
12-Aug-17 14:52 38.368634 -120.614935 42 13557ft 154kts
12-Aug-17 14:53 38.398303 -120.575551 42 13557ft 154kts
12-Aug-17 14:54 38.427446 -120.536780 42 13687ft 149kts
12-Aug-17 14:55 38.457278 -120.497252 42 13511ft 162kts
12-Aug-17 14:56 38.487781 -120.456457 42 13510ft 156kts
12-Aug-17 14:57 38.517711 -120.416512 42 13520ft 155kts
12-Aug-17 14:58 38.547222 -120.377094 44 13604ft 151kts
12-Aug-17 14:59 38.576818 -120.337568 47 13622ft 160kts
12-Aug-17 15:00 38.607915 -120.295913 48 13631ft 163kts
12-Aug-17 15:01 38.641449 -120.257367 23 13642ft 161kts
12-Aug-17 15:02 38.681604 -120.230480 26 13628ft 163kts
12-Aug-17 15:03 38.722105 -120.203409 27 13619ft 165kts
12-Aug-17 15:04 38.762528 -120.176341 26 13634ft 163kts
12-Aug-17 15:05 38.802606 -120.149471 26 13609ft 164kts
12-Aug-17 15:06 38.845104 -120.121120 26 13135ft 181kts
12-Aug-17 15:07 38.890573 -120.090524 26 12569ft 187kts
12-Aug-17 15:08 38.936883 -120.059276 26 12037ft 188kts
12-Aug-17 15:09 38.983310 -120.027942 27 11530ft 189kts
12-Aug-17 15:10 39.029815 -119.996664 26 11046ft 188kts
12-Aug-17 15:10 39.068207 -119.971012 22 10658ft 184kts
12-Aug-17 15:12 39.119840 -119.936065 22 10107ft 181kts
12-Aug-17 15:12 39.156963 -119.910898 23 9719ft 181kts
12-Aug-17 15:14 39.206914 -119.876868 22 9558ft 165kts
12-Aug-17 15:14 39.240961 -119.853872 22 9245ft 173kts
12-Aug-17 15:15 39.288138 -119.835873 10 8598ft 182kts
12-Aug-17 15:16 39.336863 -119.815728 31 7995ft 185kts
12-Aug-17 15:17 39.371274 -119.773898 36 7012ft 142kts
12-Aug-17 15:18 39.400856 -119.764666 351 6073ft 97kts
12-Aug-17 15:19 39.426194 -119.766512 350 5489ft 81kts
12-Aug-17 15:20 39.448126 -119.766273 353 5205ft 76kts
12-Aug-17 15:21 39.470608 -119.766529 353 4954ft 85kts
12-Aug-17 15:22 39.492665 -119.766745 350 4427ft 71kts
12-Aug-17 15:23 39.503032 -119.765819 16 4419ft 8kts
12-Aug-17 15:24 39.504198 -119.765248 175 4418ft 0kts
12-Aug-17 15:25 39.504198 -119.765248 175 4418ft 0kts
12-Aug-17 15:26 39.504198 -119.765248 175 4418ft 0kts
12-Aug-17 15:27 39.504198 -119.765248 175 4418ft 0kts
12-Aug-17 15:28 39.504198 -119.765248 175 4418ft 0kts
12-Aug-17 15:29 39.504198 -119.765248 175 4418ft 0kts
12-Aug-17 15:30 39.504198 -119.765248 175 4418ft 0kts
12-Aug-17 15:31 39.504198 -119.765248 175 4418ft 0kts
12-Aug-17 15:32 39.504198 -119.765248 175 4418ft 0kts
12-Aug-17 15:33 39.504198 -119.765248 175 4418ft 0kts
12-Aug-17 15:34 39.504198 -119.765248 175 4418ft 0kts
12-Aug-17 15:35 39.504198 -119.765248 175 4418ft 0kts
12-Aug-17 15:36 39.504198 -119.765248 175 4418ft 0kts
12-Aug-17 15:37 39.504198 -119.765248 175 4418ft 0kts

Navigation Log

Ident Type
Flight plan parsing failed, navigation log unavailable